Time;durP1;ratioP1;P1;durP2;ratioP2;P2;SDS_P1;SDS_P2;PMS_P1;PMS_P2;Temp;Humidity;BMP_temperature;BMP_pressure;BME280_temperature;BME280_humidity;BME280_pressure;Samples;Min_cycle;Max_cycle;Signal;HPM_P1;HPM_P2
2022/07/10 00:00:09;;;;;;;5.63;2.17;;;;;;;13.58;68.75;102697.22;5049451;28;20056;-43
2022/07/10 00:02:34;;;;;;;4.13;1.95;;;;;;;13.57;68.92;102692.81;5049524;28;20032;-43
2022/07/10 00:04:59;;;;;;;5.43;2.10;;;;;;;13.50;69.01;102699.50;5049517;28;20060;-42
2022/07/10 00:07:25;;;;;;;6.00;2.00;;;;;;;13.56;68.45;102698.28;5049868;28;20029;-43
2022/07/10 00:09:50;;;;;;;3.63;2.10;;;;;;;13.55;68.71;102699.22;5049374;28;20084;-42
2022/07/10 00:12:15;;;;;;;11.85;2.20;;;;;;;13.51;69.09;102702.06;5052273;28;20026;-43
2022/07/10 00:14:40;;;;;;;3.63;1.88;;;;;;;13.50;68.77;102700.34;5051197;28;20040;-43
2022/07/10 00:17:06;;;;;;;4.50;1.90;;;;;;;13.44;69.06;102695.38;5052077;28;20116;-42
2022/07/10 00:19:31;;;;;;;3.03;1.60;;;;;;;13.43;68.61;102695.47;5051695;28;20025;-42
2022/07/10 00:21:56;;;;;;;4.85;2.15;;;;;;;13.44;69.19;102700.72;5051423;28;20053;-43
2022/07/10 00:24:22;;;;;;;5.50;2.13;;;;;;;13.34;69.29;102694.22;5049457;28;20025;-42
2022/07/10 00:26:47;;;;;;;7.13;2.97;;;;;;;13.30;69.80;102693.47;5049638;28;20033;-44
2022/07/10 00:29:13;;;;;;;5.45;2.15;;;;;;;13.29;69.81;102696.25;5050541;28;20303;-42
2022/07/10 00:31:38;;;;;;;5.00;2.20;;;;;;;13.26;70.08;102699.94;5048443;28;20018;-43
2022/07/10 00:34:03;;;;;;;7.05;2.00;;;;;;;13.27;69.75;102698.13;5032169;28;20106;-44
2022/07/10 00:36:29;;;;;;;6.13;2.17;;;;;;;13.24;70.14;102699.19;5049274;28;20033;-42
2022/07/10 00:38:54;;;;;;;5.18;2.13;;;;;;;13.24;69.70;102696.53;5051267;28;20281;-42
2022/07/10 00:41:19;;;;;;;6.50;2.30;;;;;;;13.22;70.30;102689.53;5051806;28;20053;-43
2022/07/10 00:43:56;;;;;;;7.25;2.60;;;;;;;13.24;70.03;102690.31;5051981;28;20296;-42
2022/07/10 00:46:21;;;;;;;6.53;2.60;;;;;;;13.11;70.39;102683.03;5051929;28;20033;-42
2022/07/10 00:48:48;;;;;;;7.43;2.42;;;;;;;13.10;70.74;102681.28;5051675;28;20037;-43
2022/07/10 00:51:16;;;;;;;4.30;2.40;;;;;;;13.13;70.50;102674.94;5123611;22;20052;-76
2022/07/10 00:53:42;;;;;;;6.93;2.53;;;;;;;13.08;70.98;102677.88;5045599;28;20040;-77
2022/07/10 00:56:08;;;;;;;6.20;2.65;;;;;;;13.10;70.63;102681.28;5048184;28;20033;-77
2022/07/10 00:58:34;;;;;;;8.13;2.88;;;;;;;13.07;71.08;102680.63;5049862;28;20017;-77
2022/07/10 01:01:01;;;;;;;8.15;3.10;;;;;;;13.00;71.47;102672.09;5045695;28;20566;-77
2022/07/10 01:03:27;;;;;;;5.68;2.95;;;;;;;13.05;71.37;102678.03;5037838;28;20075;-77
2022/07/10 01:05:52;;;;;;;7.45;3.33;;;;;;;13.04;71.30;102678.13;5054747;28;20451;-77
2022/07/10 01:08:17;;;;;;;6.75;2.97;;;;;;;13.04;71.49;102671.00;5055116;28;20412;-77
2022/07/10 01:10:43;;;;;;;6.07;2.80;;;;;;;13.06;71.27;102668.25;5055681;28;20017;-77
2022/07/10 01:13:08;;;;;;;9.68;3.08;;;;;;;13.02;71.71;102664.03;5055142;28;20495;-77
2022/07/10 01:15:35;;;;;;;8.10;2.70;;;;;;;13.05;71.91;102655.84;5055850;28;20028;-77
2022/07/10 01:18:01;;;;;;;7.75;2.85;;;;;;;13.03;72.09;102657.75;5055376;28;20563;-77
2022/07/10 01:20:33;;;;;;;7.53;2.55;;;;;;;13.04;71.75;102663.00;5037412;28;20117;-77
2022/07/10 01:22:58;;;;;;;5.68;2.53;;;;;;;13.05;71.76;102648.69;5054054;28;20120;-77
2022/07/10 01:25:24;;;;;;;7.43;2.78;;;;;;;13.06;71.79;102641.56;5055105;28;20061;-77
2022/07/10 01:27:50;;;;;;;7.57;2.60;;;;;;;13.05;72.45;102639.84;5056065;28;20483;-77
2022/07/10 01:30:16;;;;;;;8.02;2.63;;;;;;;13.05;71.51;102639.84;5055278;28;20040;-77
2022/07/10 01:32:41;;;;;;;7.93;2.85;;;;;;;13.01;72.43;102636.50;5055467;28;20426;-77
2022/07/10 01:35:07;;;;;;;4.43;2.35;;;;;;;13.02;72.05;102640.88;5050105;28;20025;-77
2022/07/10 01:37:33;;;;;;;3.50;2.20;;;;;;;12.98;72.12;102643.81;5041350;28;20155;-77
2022/07/10 01:39:58;;;;;;;9.07;2.65;;;;;;;12.95;72.69;102634.19;5037288;28;20104;-77
2022/07/10 01:42:23;;;;;;;5.75;2.42;;;;;;;12.96;72.13;102636.75;5054129;28;20017;-77
2022/07/10 01:44:49;;;;;;;5.32;2.35;;;;;;;12.98;72.58;102634.00;5045557;28;20052;-77
2022/07/10 01:47:14;;;;;;;8.38;2.80;;;;;;;12.98;72.52;102643.81;5055201;28;20471;-78
2022/07/10 01:49:39;;;;;;;7.90;2.50;;;;;;;12.94;72.43;102643.16;5054984;28;20097;-77
2022/07/10 01:52:05;;;;;;;5.90;2.20;;;;;;;12.95;72.54;102639.50;5054884;28;20537;-77
2022/07/10 01:54:30;;;;;;;8.35;2.40;;;;;;;12.93;72.67;102638.75;5041993;28;20287;-77
2022/07/10 01:56:56;;;;;;;6.90;2.60;;;;;;;12.86;73.11;102634.72;5055263;28;20033;-77
2022/07/10 01:59:21;;;;;;;10.50;3.22;;;;;;;12.85;73.40;102639.19;5048952;28;20388;-77
2022/07/10 02:01:46;;;;;;;6.72;2.60;;;;;;;12.83;72.92;102645.56;5054015;28;20021;-77
2022/07/10 02:06:56;;;;;;;9.70;2.67;;;;;;;12.76;73.58;102639.72;5034586;28;20044;-77
2022/07/10 02:09:21;;;;;;;6.75;2.92;;;;;;;12.70;74.00;102638.25;5046595;28;20033;-78
2022/07/10 02:11:46;;;;;;;7.85;2.75;;;;;;;12.69;73.60;102639.22;5039729;28;20028;-77
2022/07/10 02:14:13;;;;;;;6.93;2.72;;;;;;;12.67;73.64;102637.56;5053399;28;20078;-77
2022/07/10 02:16:38;;;;;;;4.03;2.42;;;;;;;12.61;74.26;102644.13;5048603;28;20493;-77
2022/07/10 02:19:04;;;;;;;6.35;2.88;;;;;;;12.61;74.05;102641.47;5032901;28;20104;-77
2022/07/10 02:21:33;;;;;;;7.15;3.10;;;;;;;12.62;74.84;102635.16;5046916;28;20113;-75
2022/07/10 02:23:58;;;;;;;6.35;2.80;;;;;;;12.60;74.50;102639.72;5052752;28;20025;-76
2022/07/10 02:26:23;;;;;;;6.55;2.92;;;;;;;12.56;74.49;102639.03;5049144;28;20028;-77
2022/07/10 02:28:49;;;;;;;7.72;2.90;;;;;;;12.56;74.76;102635.53;5038558;28;20037;-77
2022/07/10 02:31:15;;;;;;;5.90;2.75;;;;;;;12.55;74.53;102636.47;5025095;28;20104;-77
2022/07/10 02:33:40;;;;;;;5.50;2.78;;;;;;;12.51;75.13;102632.25;5051579;28;20025;-77
2022/07/10 02:36:05;;;;;;;5.25;2.90;;;;;;;12.48;74.91;102635.09;5051722;28;20066;-77
2022/07/10 02:38:32;;;;;;;4.65;2.60;;;;;;;12.47;74.81;102634.22;5050462;28;20036;-77
2022/07/10 02:40:57;;;;;;;7.82;3.15;;;;;;;12.48;75.09;102640.44;5033228;28;20043;-76
2022/07/10 02:43:22;;;;;;;6.57;2.78;;;;;;;12.47;75.10;102639.53;5051551;28;20456;-77
2022/07/10 02:45:48;;;;;;;8.05;2.95;;;;;;;12.49;74.69;102637.69;5052175;28;20041;-76
2022/07/10 02:48:17;;;;;;;6.70;2.63;;;;;;;12.45;74.76;102633.44;5051759;28;20066;-77
2022/07/10 02:50:43;;;;;;;4.75;2.95;;;;;;;12.42;74.54;102632.75;5050821;28;20509;-76
2022/07/10 02:53:08;;;;;;;8.95;2.83;;;;;;;12.38;75.37;102635.59;5052040;28;20076;-76
2022/07/10 02:55:34;;;;;;;6.53;2.88;;;;;;;12.36;75.20;102633.97;5034559;28;20031;-76
2022/07/10 02:57:59;;;;;;;5.20;2.60;;;;;;;12.34;75.14;102626.06;5052484;28;20021;-76
2022/07/10 03:00:26;;;;;;;8.18;2.75;;;;;;;12.39;75.34;102634.66;5046226;28;20075;-76
2022/07/10 03:02:52;;;;;;;8.77;2.75;;;;;;;12.35;75.69;102626.91;5033369;28;20036;-76
2022/07/10 03:05:17;;;;;;;5.93;2.40;;;;;;;12.38;75.80;102632.94;5042820;28;20522;-77
2022/07/10 03:07:43;;;;;;;4.93;2.70;;;;;;;12.36;75.90;102618.00;5036461;28;20055;-77
2022/07/10 03:10:09;;;;;;;5.57;2.60;;;;;;;12.32;76.08;102627.97;5034033;28;20067;-77
2022/07/10 03:12:34;;;;;;;4.95;2.30;;;;;;;12.39;75.74;102623.16;5039399;28;20033;-77
2022/07/10 03:15:00;;;;;;;7.30;2.50;;;;;;;12.36;75.54;102621.50;5049891;28;20032;-76
2022/07/10 03:17:25;;;;;;;8.43;2.70;;;;;;;12.36;75.87;102626.84;5051314;28;20037;-77
2022/07/10 03:19:50;;;;;;;5.85;2.40;;;;;;;12.36;75.88;102632.16;5040066;28;20475;-77
2022/07/10 03:22:16;;;;;;;6.18;2.72;;;;;;;12.37;75.69;102625.91;5050219;28;20017;-77
2022/07/10 03:24:43;;;;;;;6.03;3.03;;;;;;;12.36;75.79;102629.50;5051283;28;20383;-77
2022/07/10 03:27:08;;;;;;;5.28;2.42;;;;;;;12.33;76.03;102623.50;5033857;28;20032;-77
2022/07/10 03:29:34;;;;;;;6.97;2.90;;;;;;;12.31;75.88;102626.22;5043878;28;20025;-77
2022/07/10 03:31:59;;;;;;;7.07;3.20;;;;;;;12.32;75.65;102614.66;5052038;28;20423;-77
2022/07/10 03:34:25;;;;;;;7.32;2.60;;;;;;;12.30;75.89;102618.31;5051693;28;20037;-77
2022/07/10 03:36:51;;;;;;;7.93;2.70;;;;;;;12.26;75.76;102614.97;5050950;28;20036;-77
2022/07/10 03:39:16;;;;;;;4.95;2.78;;;;;;;12.22;76.00;102613.41;5052489;28;20017;-77
2022/07/10 03:41:42;;;;;;;7.78;2.55;;;;;;;12.25;76.25;102618.56;5039376;28;20136;-77
2022/07/10 03:44:07;;;;;;;6.10;2.70;;;;;;;12.19;76.19;102611.78;5051929;28;20104;-77
2022/07/10 03:46:32;;;;;;;5.95;2.90;;;;;;;12.21;76.21;102604.56;5035115;28;20111;-77
2022/07/10 03:48:58;;;;;;;5.13;2.75;;;;;;;12.20;76.27;102594.84;5035088;28;20021;-77
2022/07/10 03:51:23;;;;;;;9.90;2.73;;;;;;;12.21;76.18;102601.91;5039119;28;20034;-77
2022/07/10 03:53:48;;;;;;;6.15;2.70;;;;;;;12.21;76.32;102601.91;5029942;28;20657;-77
2022/07/10 03:57:53;;;;;;;4.03;2.60;;;;;;;12.18;76.46;102601.22;5052568;28;20522;-77
2022/07/10 03:58:59;;;;;;;5.47;2.90;;;;;;;12.21;76.62;102611.72;5052541;28;20029;-77
2022/07/10 04:01:24;;;;;;;8.23;3.10;;;;;;;12.21;76.54;102607.22;5053018;28;20491;-77
2022/07/10 04:03:49;;;;;;;8.95;3.10;;;;;;;12.18;76.14;102604.72;5052776;28;20033;-77
2022/07/10 04:06:27;;;;;;;6.88;3.08;;;;;;;12.17;77.16;102610.13;5052152;28;20480;-77
2022/07/10 04:08:52;;;;;;;5.35;2.90;;;;;;;12.17;77.51;102613.69;5034814;28;20062;-78
2022/07/10 04:11:17;;;;;;;5.82;3.10;;;;;;;12.24;77.15;102605.34;5048342;28;20116;-78
2022/07/10 04:13:43;;;;;;;7.00;3.05;;;;;;;12.24;77.89;102608.88;5032704;28;20032;-77
2022/07/10 04:16:12;;;;;;;7.80;2.95;;;;;;;12.23;77.96;102607.16;5049308;28;20025;-77
2022/07/10 04:18:38;;;;;;;4.95;2.80;;;;;;;12.27;77.76;102615.81;5052561;28;20027;-78
2022/07/10 04:21:03;;;;;;;5.53;3.03;;;;;;;12.31;78.03;102612.91;5052493;28;20033;-78
2022/07/10 04:23:29;;;;;;;7.10;2.97;;;;;;;12.34;78.01;102614.53;5052797;28;20112;-77
2022/07/10 04:25:54;;;;;;;8.60;2.97;;;;;;;12.36;77.58;102610.84;5039934;28;20100;-77
2022/07/10 04:28:19;;;;;;;7.15;2.83;;;;;;;12.39;78.01;102610.69;5051486;28;20275;-78
2022/07/10 04:30:45;;;;;;;6.70;3.05;;;;;;;12.44;77.40;102601.56;5041285;28;20021;-78
2022/07/10 04:33:10;;;;;;;6.83;3.17;;;;;;;12.45;77.58;102606.81;5049233;28;20029;-78
2022/07/10 04:35:36;;;;;;;8.20;3.20;;;;;;;12.49;77.50;102603.03;5045240;28;20939;-77
2022/07/10 04:38:01;;;;;;;5.57;2.88;;;;;;;12.53;77.48;102607.22;5056765;28;20048;-77
2022/07/10 04:40:26;;;;;;;6.40;3.03;;;;;;;12.54;77.45;102608.97;5038514;28;20033;-77
2022/07/10 04:42:52;;;;;;;6.85;2.90;;;;;;;12.58;76.71;102612.31;5057880;28;20087;-77
2022/07/10 04:45:17;;;;;;;6.13;3.08;;;;;;;12.60;77.99;102607.75;5055879;28;20039;-77
2022/07/10 04:47:42;;;;;;;7.80;3.13;;;;;;;12.66;77.50;102601.22;5056305;28;20025;-78
2022/07/10 04:50:08;;;;;;;7.43;3.42;;;;;;;12.69;78.00;102601.91;5038999;28;20021;-77
2022/07/10 04:52:34;;;;;;;5.68;2.80;;;;;;;12.74;77.73;102598.97;5038046;28;20564;-77
2022/07/10 04:54:59;;;;;;;8.25;2.95;;;;;;;12.79;77.16;102612.88;5055455;28;20460;-77
2022/07/10 04:57:25;;;;;;;7.68;3.08;;;;;;;12.85;77.88;102615.19;5055841;28;20060;-78
2022/07/10 04:59:50;;;;;;;8.23;3.30;;;;;;;12.91;78.67;102616.66;5055919;28;20120;-77
2022/07/10 05:02:15;;;;;;;6.68;3.42;;;;;;;12.96;77.96;102614.56;5054890;28;20060;-77
2022/07/10 05:04:40;;;;;;;9.52;3.42;;;;;;;12.95;78.62;102608.34;5054985;28;20090;-78
2022/07/10 05:07:06;;;;;;;6.25;2.88;;;;;;;13.02;78.06;102598.19;5056524;28;20064;-77
2022/07/10 05:09:31;;;;;;;7.90;3.30;;;;;;;13.08;78.44;102597.84;5051703;28;20491;-77
2022/07/10 05:11:57;;;;;;;8.68;3.00;;;;;;;13.17;78.84;102606.25;5027862;28;20104;-77
2022/07/10 05:14:22;;;;;;;11.90;3.55;;;;;;;13.23;78.77;102609.41;5053011;28;20037;-77
2022/07/10 05:16:47;;;;;;;7.32;3.22;;;;;;;13.29;77.99;102603.72;5048786;28;20034;-77
2022/07/10 05:19:13;;;;;;;8.63;3.13;;;;;;;13.38;78.03;102609.47;5049632;28;20033;-77
2022/07/10 05:21:38;;;;;;;5.35;2.90;;;;;;;13.43;77.73;102602.91;5056085;28;20140;-78
2022/07/10 05:24:03;;;;;;;7.97;2.83;;;;;;;13.49;78.29;102610.53;5056571;28;20468;-77
2022/07/10 05:26:29;;;;;;;4.78;2.80;;;;;;;13.60;78.39;102607.19;5054387;28;20028;-77
2022/07/10 05:28:54;;;;;;;8.00;3.35;;;;;;;13.69;78.69;102608.47;5044423;28;20033;-77
2022/07/10 05:31:19;;;;;;;11.43;4.00;;;;;;;13.77;78.05;102603.50;5032484;28;20518;-77
2022/07/10 05:33:45;;;;;;;4.82;2.70;;;;;;;13.90;78.54;102597.41;5054571;28;20399;-78
2022/07/10 05:36:10;;;;;;;7.18;2.92;;;;;;;14.05;77.45;102599.09;5054469;28;20033;-77
2022/07/10 05:38:36;;;;;;;11.45;3.08;;;;;;;14.27;77.34;102606.59;5040117;28;20061;-77
2022/07/10 05:41:01;;;;;;;6.03;2.80;;;;;;;14.46;77.15;102603.59;5052035;28;20025;-78
2022/07/10 05:43:27;;;;;;;7.75;2.92;;;;;;;14.73;75.94;102602.78;5039776;28;20021;-77
2022/07/10 05:45:52;;;;;;;8.55;2.60;;;;;;;14.96;76.28;102606.59;5052343;28;20424;-78
2022/07/10 05:48:19;;;;;;;8.77;2.78;;;;;;;15.18;74.33;102606.00;5042657;28;20129;-77
2022/07/10 05:50:44;;;;;;;7.25;2.50;;;;;;;15.40;73.55;102604.53;5051284;28;20136;-77
2022/07/10 05:53:10;;;;;;;6.60;2.28;;;;;;;15.63;72.97;102605.59;5053635;28;20144;-78
2022/07/10 05:55:35;;;;;;;6.63;2.20;;;;;;;15.90;72.21;102609.06;5053463;28;20040;-78
2022/07/10 05:58:00;;;;;;;8.30;2.20;;;;;;;16.12;71.01;102607.53;5035559;28;20021;-77
2022/07/10 06:00:26;;;;;;;4.40;1.65;;;;;;;16.40;70.23;102610.84;5053691;28;20076;-78
2022/07/10 06:02:51;;;;;;;8.10;2.03;;;;;;;16.62;69.21;102610.13;5053686;28;20098;-78
2022/07/10 06:05:17;;;;;;;7.28;1.88;;;;;;;16.85;68.33;102611.13;5035781;28;20363;-78
2022/07/10 06:07:42;;;;;;;6.57;1.80;;;;;;;17.06;67.78;102610.47;5053876;28;20025;-78
2022/07/10 06:10:08;;;;;;;4.22;1.50;;;;;;;17.24;67.11;102606.38;5053633;28;20021;-78
2022/07/10 06:12:33;;;;;;;5.70;1.80;;;;;;;17.49;66.07;102605.34;5039861;28;20033;-78
2022/07/10 06:14:58;;;;;;;6.20;1.67;;;;;;;17.74;65.76;102598.03;5050570;28;20013;-78
2022/07/10 06:17:24;;;;;;;6.88;1.60;;;;;;;17.89;64.73;102596.00;5040733;28;20110;-78
2022/07/10 06:19:49;;;;;;;5.65;1.83;;;;;;;18.19;63.75;102605.25;5053780;28;20364;-81
2022/07/10 06:22:30;;;;;;;5.25;1.80;;;;;;;18.27;63.12;102600.94;5055688;28;20430;-81
2022/07/10 06:24:56;;;;;;;9.20;1.95;;;;;;;18.51;62.08;102604.44;5036852;28;20056;-79
2022/07/10 06:27:21;;;;;;;6.15;1.58;;;;;;;18.79;60.96;102603.84;5055539;28;20116;-80
2022/07/10 06:29:49;;;;;;;5.88;1.58;;;;;;;18.94;60.77;102615.19;5034783;28;20391;-80
2022/07/10 06:32:15;;;;;;;6.47;1.80;;;;;;;19.01;59.96;102604.75;5050326;28;20045;-80
2022/07/10 06:34:40;;;;;;;7.22;1.80;;;;;;;19.03;59.53;102603.66;5037915;28;20431;-80
2022/07/10 06:37:12;;;;;;;7.45;1.35;;;;;;;19.14;59.78;102599.19;5053508;28;20045;-80
2022/07/10 06:39:38;;;;;;;6.10;1.70;;;;;;;19.22;57.41;102610.16;5035348;28;20729;-82
2022/07/10 06:42:05;;;;;;;6.40;1.88;;;;;;;19.35;58.20;102602.75;5053834;28;20036;-80
2022/07/10 06:44:30;;;;;;;5.80;1.98;;;;;;;19.63;57.22;102584.16;5036111;28;20518;-80
2022/07/10 06:49:48;;;;;;;5.38;1.50;;;;;;;20.20;57.12;102595.34;5015990;28;20056;-81
2022/07/10 06:52:13;;;;;;;7.90;2.30;;;;;;;20.33;56.31;102592.34;5046764;28;20048;-81
2022/07/10 06:54:39;;;;;;;8.27;1.70;;;;;;;20.50;55.11;102594.38;5045092;28;20017;-81
2022/07/10 06:57:05;;;;;;;6.05;1.60;;;;;;;20.72;55.19;102583.47;5049019;28;20380;-80
2022/07/10 06:59:30;;;;;;;5.25;1.50;;;;;;;20.96;54.20;102594.69;5035644;28;20025;-79
2022/07/10 07:01:59;;;;;;;5.88;1.83;;;;;;;21.20;52.68;102593.38;5042725;28;20040;-80
2022/07/10 07:04:24;;;;;;;7.25;1.70;;;;;;;21.28;52.92;102592.66;5023602;28;21109;-80
2022/07/10 07:06:50;;;;;;;8.00;1.70;;;;;;;21.28;52.19;102588.09;5048505;28;20047;-81
2022/07/10 07:09:15;;;;;;;8.95;2.40;;;;;;;21.37;52.37;102589.09;5052398;28;20048;-80
2022/07/10 07:11:43;;;;;;;6.03;1.63;;;;;;;21.33;52.24;102593.91;5055452;28;20104;-80
2022/07/10 07:14:09;;;;;;;8.55;2.20;;;;;;;21.36;51.91;102587.38;5054573;28;20100;-78
2022/07/10 07:16:45;;;;;;;6.93;1.50;;;;;;;21.52;51.33;102589.53;5049001;28;20064;-81
2022/07/10 07:19:17;;;;;;;8.10;1.70;;;;;;;21.47;51.40;102595.38;5055865;28;20271;-81
2022/07/10 07:24:27;;;;;;;9.43;1.77;;;;;;;21.36;51.84;102606.31;5049458;28;20075;-80
2022/07/10 07:26:52;;;;;;;8.05;1.70;;;;;;;21.41;52.36;102607.56;5055548;28;20030;-80
2022/07/10 07:29:18;;;;;;;7.30;1.98;;;;;;;21.24;51.91;102611.88;5038181;28;20039;-81
2022/07/10 07:31:43;;;;;;;5.00;1.55;;;;;;;21.23;51.74;102615.59;5047946;28;20075;-81
2022/07/10 07:34:09;;;;;;;6.07;1.70;;;;;;;21.29;52.61;102605.19;5041448;28;20079;-81
2022/07/10 07:36:35;;;;;;;7.05;1.95;;;;;;;21.21;51.40;102606.75;5052859;28;20033;-82
2022/07/10 07:39:03;;;;;;;8.23;1.75;;;;;;;21.16;51.80;102603.63;5050267;28;20062;-83
2022/07/10 07:41:29;;;;;;;4.10;1.83;;;;;;;21.16;52.40;102602.78;5052103;28;20044;-82
2022/07/10 07:43:54;;;;;;;7.00;1.83;;;;;;;21.12;52.39;102604.09;5047278;28;20051;-82
2022/07/10 07:46:27;;;;;;;9.68;2.08;;;;;;;21.13;53.29;102616.59;5049066;28;20028;-82
2022/07/10 07:48:55;;;;;;;5.88;2.10;;;;;;;21.00;52.91;102601.53;5048963;28;20126;-82
2022/07/10 07:51:20;;;;;;;9.43;2.50;;;;;;;21.10;53.30;102601.53;5040611;28;20028;-82
2022/07/10 07:53:46;;;;;;;10.10;2.17;;;;;;;21.12;52.21;102607.63;5050639;28;20047;-79
2022/07/10 07:56:11;;;;;;;10.43;2.30;;;;;;;21.05;52.79;102614.63;5042627;28;20116;-82
2022/07/10 07:58:36;;;;;;;7.35;2.60;;;;;;;21.10;53.05;102615.03;5024179;28;20400;-80
2022/07/10 08:01:05;;;;;;;6.50;2.55;;;;;;;20.95;53.01;102609.22;5033878;28;20053;-81
2022/07/10 08:03:30;;;;;;;8.93;2.63;;;;;;;20.98;52.75;102606.22;5051393;28;20037;-82
2022/07/10 08:05:56;;;;;;;6.80;2.53;;;;;;;20.91;52.48;102607.78;5035057;28;20021;-82
2022/07/10 08:08:21;;;;;;;8.60;2.28;;;;;;;20.79;53.36;102615.19;5041355;28;20037;-82
2022/07/10 08:10:47;;;;;;;7.17;2.60;;;;;;;20.72;54.03;102614.06;5052302;28;20091;-82
2022/07/10 08:13:12;;;;;;;8.10;2.67;;;;;;;20.67;53.91;102609.06;5052732;28;20309;-82
2022/07/10 08:15:38;;;;;;;7.10;2.60;;;;;;;20.65;53.54;102605.66;5048781;28;20112;-82
2022/07/10 08:18:06;;;;;;;9.13;2.90;;;;;;;20.64;53.36;102605.81;5050537;28;20056;-82
2022/07/10 08:20:32;;;;;;;9.95;2.90;;;;;;;20.54;53.67;102605.75;5038046;28;20695;-82
2022/07/10 08:22:57;;;;;;;9.70;2.70;;;;;;;20.58;54.72;102600.91;5052534;28;20025;-82
2022/07/10 08:25:23;;;;;;;10.20;3.22;;;;;;;20.63;54.10;102607.66;5035963;28;20041;-82
2022/07/10 08:27:49;;;;;;;9.27;3.13;;;;;;;20.56;54.94;102601.06;5040023;28;20028;-82
2022/07/10 08:30:15;;;;;;;7.40;2.92;;;;;;;20.52;55.10;102600.50;5052240;28;20055;-79
2022/07/10 08:32:40;;;;;;;9.57;2.80;;;;;;;20.59;54.53;102600.78;5053519;28;20017;-80
2022/07/10 08:35:07;;;;;;;10.35;3.08;;;;;;;20.68;54.40;102596.41;5038128;28;20029;-81
2022/07/10 08:37:42;;;;;;;8.82;2.38;;;;;;;20.54;55.82;102605.75;5051879;28;20499;-80
2022/07/10 08:40:09;;;;;;;9.88;2.85;;;;;;;20.56;54.68;102601.06;5052953;28;20056;-80
2022/07/10 08:42:37;;;;;;;7.63;2.63;;;;;;;20.56;55.31;102601.06;5052829;28;20024;-80
2022/07/10 08:45:03;;;;;;;10.47;2.63;;;;;;;20.67;54.76;102605.53;5052322;28;20024;-79
2022/07/10 08:47:31;;;;;;;8.77;3.10;;;;;;;20.47;54.03;102605.47;5052374;28;20507;-79
2022/07/10 08:49:56;;;;;;;8.18;2.45;;;;;;;20.27;55.31;102603.72;5053060;28;20025;-79
2022/07/10 08:52:44;;;;;;;8.60;2.45;;;;;;;20.41;55.50;102605.16;5033580;28;20045;-79
2022/07/10 08:55:19;;;;;;;8.50;2.50;;;;;;;20.31;54.96;102605.16;5041236;28;20337;-79
2022/07/10 08:57:45;;;;;;;7.90;2.55;;;;;;;20.28;55.91;102603.59;5027639;28;20037;-79
2022/07/10 09:00:11;;;;;;;7.25;2.80;;;;;;;20.37;55.59;102603.72;5046017;28;20021;-79
2022/07/10 09:02:36;;;;;;;8.95;2.65;;;;;;;20.44;55.60;102607.59;5025864;28;20040;-79
2022/07/10 09:05:04;;;;;;;7.47;2.50;;;;;;;20.44;55.61;102599.50;5036981;28;20075;-79
2022/07/10 09:07:37;;;;;;;10.20;3.05;;;;;;;20.47;55.13;102610.84;5033313;28;20377;-80
2022/07/10 09:10:08;;;;;;;6.97;2.20;;;;;;;20.43;55.11;102604.00;5034294;28;20713;-79
2022/07/10 09:12:57;;;;;;;6.43;2.15;;;;;;;20.58;55.60;102606.31;5030256;28;20204;-79
2022/07/10 09:15:23;;;;;;;;;;;;;;;20.72;55.21;102597.84;5051745;28;20383;-80
2022/07/10 09:17:56;;;;;;;7.57;2.25;;;;;;;20.55;55.03;102601.19;5051457;28;19908;-79
2022/07/10 09:20:36;;;;;;;11.82;2.40;;;;;;;20.52;55.81;102596.94;5050893;28;20028;-80
2022/07/10 09:23:22;;;;;;;4.43;2.10;;;;;;;20.59;55.91;102589.97;5041657;28;20025;-80
2022/07/10 09:25:49;;;;;;;7.82;2.65;;;;;;;20.51;55.47;102587.13;5033962;28;20032;-79
2022/07/10 09:28:20;;;;;;;9.15;2.17;;;;;;;20.43;54.79;102590.53;5054050;28;20028;-79
2022/07/10 09:30:46;;;;;;;4.32;2.10;;;;;;;20.55;56.07;102587.69;5045290;28;20556;-80
2022/07/10 09:33:25;;;;;;;11.05;2.55;;;;;;;20.51;55.83;102587.13;5052333;28;20450;-79
2022/07/10 09:36:06;;;;;;;6.07;1.92;;;;;;;20.45;55.56;102580.47;5033323;28;20029;-80
2022/07/10 09:38:53;;;;;;;3.35;2.00;;;;;;;20.56;55.93;102578.63;5054848;28;20040;-79
2022/07/10 09:41:26;;;;;;;4.75;1.80;;;;;;;20.46;56.30;102578.59;5055393;28;20028;-79
2022/07/10 09:43:55;;;;;;;5.43;1.90;;;;;;;20.44;54.88;102584.16;5050189;28;20064;-79
2022/07/10 09:46:23;;;;;;;7.22;2.35;;;;;;;20.40;55.99;102577.34;5038278;28;20204;-79
2022/07/10 09:49:01;;;;;;;4.40;1.80;;;;;;;20.47;56.45;102577.63;5028454;28;20037;-80
2022/07/10 09:51:33;;;;;;;4.57;2.20;;;;;;;20.37;55.90;102577.59;5031182;28;20035;-80
2022/07/10 09:54:04;;;;;;;4.20;1.83;;;;;;;20.43;56.69;102571.63;5053973;28;20111;-80
2022/07/10 09:56:40;;;;;;;7.07;2.10;;;;;;;20.54;56.29;102567.97;5053650;28;20036;-80
2022/07/10 09:59:08;;;;;;;5.55;2.35;;;;;;;;;;5054985;28;20036;-78
2022/07/10 10:01:35;;;;;;;5.88;2.17;;;;;;;20.78;54.45;102567.56;5035842;28;20040;-78
2022/07/10 10:04:03;;;;;;;4.85;1.95;;;;;;;20.88;54.37;102562.16;5052769;28;20063;-78
2022/07/10 10:06:30;;;;;;;3.55;2.00;;;;;;;20.84;54.21;102561.59;5053535;28;20357;-78
2022/07/10 10:09:08;;;;;;;5.85;1.90;;;;;;;20.87;54.93;102568.56;5053974;28;20039;-78
2022/07/10 10:11:36;;;;;;;4.28;1.85;;;;;;;20.87;55.13;102565.88;5034032;28;20038;-78
2022/07/10 10:14:03;;;;;;;5.65;2.50;;;;;;;20.92;54.52;102566.28;5053337;28;20115;-79
2022/07/10 10:16:29;;;;;;;6.88;2.10;;;;;;;21.17;54.17;102564.81;5054426;28;20025;-78
2022/07/10 10:21:40;;;;;;;9.68;2.20;;;;;;;21.50;53.59;102562.63;5053860;28;20063;-78
2022/07/10 10:24:06;;;;;;;3.30;1.77;;;;;;;21.43;53.67;102559.63;5028125;28;20031;-78
2022/07/10 10:26:32;;;;;;;4.57;2.25;;;;;;;21.39;53.46;102552.81;5047860;28;20035;-78
2022/07/10 10:29:00;;;;;;;7.15;2.35;;;;;;;21.34;52.38;102559.66;5048520;28;20107;-78
2022/07/10 10:31:30;;;;;;;6.32;2.33;;;;;;;21.43;53.16;102553.34;5054435;28;20033;-78
2022/07/10 10:33:57;;;;;;;3.47;2.03;;;;;;;21.41;53.12;102550.78;5035895;28;20017;-78
2022/07/10 10:36:51;;;;;;;16.58;4.43;;;;;;;21.66;53.16;102548.47;5038079;28;20052;-79
2022/07/10 10:39:18;;;;;;;7.65;2.33;;;;;;;21.79;52.36;102553.53;5030202;28;20048;-80
2022/07/10 10:41:48;;;;;;;57.10;9.73;;;;;;;22.04;53.58;102551.13;5042795;28;20076;-80
2022/07/10 10:44:17;;;;;;;5.10;2.47;;;;;;;22.13;51.73;102553.78;5026722;28;20016;-80
2022/07/10 10:47:05;;;;;;;6.50;1.90;;;;;;;22.26;51.90;102547.97;5044523;28;20025;-80
2022/07/10 10:50:01;;;;;;;4.03;2.00;;;;;;;22.43;52.10;102549.03;5043886;28;20034;-79
2022/07/10 10:52:27;;;;;;;2.42;1.75;;;;;;;22.42;51.00;102544.63;5024415;28;20075;-79
2022/07/10 10:55:03;;;;;;;4.47;1.80;;;;;;;22.59;51.00;102542.06;5055875;28;20033;-79
2022/07/10 10:57:32;;;;;;;4.00;1.63;;;;;;;22.69;50.49;102546.38;5055238;28;20083;-79
2022/07/10 10:59:59;;;;;;;3.53;2.22;;;;;;;22.69;50.79;102546.38;5053178;28;20032;-79
2022/07/10 11:02:24;;;;;;;7.35;2.35;;;;;;;22.62;51.32;102545.31;5055053;28;20061;-79
2022/07/10 11:04:50;;;;;;;3.47;2.20;;;;;;;22.71;49.75;102546.22;5037044;28;20040;-79
2022/07/10 11:07:53;;;;;;;3.50;1.35;;;;;;;22.81;50.62;102540.72;5054180;28;20103;-79
2022/07/10 11:10:41;;;;;;;5.75;1.95;;;;;;;22.76;50.68;102535.75;5017203;28;20025;-79
2022/07/10 11:13:19;;;;;;;2.78;1.48;;;;;;;22.70;51.13;102534.53;5027298;28;20033;-79
2022/07/10 11:15:47;;;;;;;6.07;1.70;;;;;;;22.74;50.94;102529.66;5049675;28;20025;-79
2022/07/10 11:18:15;;;;;;;3.08;1.60;;;;;;;22.70;50.66;102523.72;5051924;28;20049;-80
2022/07/10 11:20:42;;;;;;;4.28;1.52;;;;;;;22.85;48.61;102531.28;5057664;28;20017;-80
2022/07/10 11:23:42;;;;;;;5.47;1.60;;;;;;;22.92;50.03;102522.34;5052015;28;20045;-80
2022/07/10 11:26:11;;;;;;;6.00;1.75;;;;;;;22.86;47.84;102530.25;5042220;28;20028;-80
2022/07/10 11:28:58;;;;;;;7.82;1.60;;;;;;;23.06;50.46;102528.19;5048270;28;20111;-78
2022/07/10 11:31:26;;;;;;;3.20;1.40;;;;;;;23.11;49.57;102530.47;5047450;28;20090;-78
2022/07/10 11:33:53;;;;;;;3.07;1.30;;;;;;;23.21;48.79;102528.50;5049668;28;20052;-78
2022/07/10 11:36:32;;;;;;;3.67;1.50;;;;;;;23.26;48.88;102523.44;5048868;28;20516;-78
2022/07/10 11:38:58;;;;;;;6.38;1.55;;;;;;;23.17;48.23;102519.84;5055644;28;20025;-78